createdAt,value
2017-12-08T00:00:25.019Z,8.10
2017-12-08T00:03:12.640Z,8.00
2017-12-08T00:05:46.440Z,8.00
2017-12-08T00:08:20.248Z,8.00
2017-12-08T00:10:54.778Z,7.90
2017-12-08T00:13:28.392Z,7.90
2017-12-08T00:16:02.144Z,7.80
2017-12-08T00:18:35.886Z,7.80
2017-12-08T00:21:09.520Z,7.80
2017-12-08T00:23:43.291Z,7.80
2017-12-08T00:26:17.062Z,7.90
2017-12-08T00:28:50.802Z,7.90
2017-12-08T00:31:25.346Z,7.90
2017-12-08T00:33:59.133Z,7.90
2017-12-08T00:36:32.980Z,7.90
2017-12-08T00:39:07.479Z,7.90
2017-12-08T00:41:41.176Z,7.80
2017-12-08T00:44:15.751Z,7.80
2017-12-08T00:46:49.504Z,7.80
2017-12-08T00:49:24.289Z,7.90
2017-12-08T00:51:58.045Z,7.90
2017-12-08T00:54:32.049Z,7.80
2017-12-08T00:57:05.977Z,7.80
2017-12-08T00:59:39.642Z,7.80
2017-12-08T01:02:13.670Z,7.80
2017-12-08T01:04:47.408Z,7.80
2017-12-08T01:07:21.236Z,7.80
2017-12-08T01:09:59.037Z,7.80
2017-12-08T01:12:32.827Z,7.80
2017-12-08T01:15:06.610Z,7.80
2017-12-08T01:17:40.420Z,7.80
2017-12-08T01:20:14.148Z,7.80
2017-12-08T01:22:48.103Z,7.80
2017-12-08T01:25:21.877Z,7.80
2017-12-08T01:27:55.598Z,7.80
2017-12-08T01:30:30.100Z,7.80
2017-12-08T01:33:11.587Z,7.80
2017-12-08T01:35:45.296Z,7.80
2017-12-08T01:38:19.044Z,7.80
2017-12-08T01:40:53.533Z,7.90
2017-12-08T01:43:27.393Z,7.80
2017-12-08T01:46:01.132Z,7.80
2017-12-08T01:48:35.048Z,7.80
2017-12-08T01:51:08.753Z,7.80
2017-12-08T01:53:42.628Z,7.80
2017-12-08T01:56:16.557Z,7.80
2017-12-08T01:58:50.476Z,7.80
2017-12-08T02:01:24.270Z,7.80
2017-12-08T02:03:58.062Z,7.80
2017-12-08T02:06:37.107Z,7.80
2017-12-08T02:09:11.060Z,7.80
2017-12-08T02:11:44.867Z,7.80
2017-12-08T02:14:19.372Z,7.80
2017-12-08T02:16:54.969Z,7.80
2017-12-08T02:19:28.776Z,7.80
2017-12-08T02:22:03.121Z,7.80
2017-12-08T02:24:37.269Z,7.80
2017-12-08T02:27:11.960Z,7.80
2017-12-08T02:29:46.208Z,7.80
2017-12-08T02:32:19.910Z,7.80
2017-12-08T02:34:53.680Z,7.80
2017-12-08T02:37:28.298Z,7.80
2017-12-08T02:40:02.061Z,7.80
2017-12-08T02:42:36.578Z,7.80
2017-12-08T02:45:10.447Z,7.80
2017-12-08T02:47:44.129Z,7.80
2017-12-08T02:50:18.228Z,7.80
2017-12-08T02:52:51.975Z,7.80
2017-12-08T02:55:25.696Z,7.80
2017-12-08T02:57:59.552Z,7.80
2017-12-08T03:00:33.297Z,7.70
2017-12-08T03:03:07.220Z,7.70
2017-12-08T03:05:40.922Z,7.70
2017-12-08T03:08:14.677Z,7.70
2017-12-08T03:10:48.434Z,7.70
2017-12-08T03:13:22.233Z,7.70
2017-12-08T03:15:55.863Z,7.70
2017-12-08T03:18:29.631Z,7.70
2017-12-08T03:21:03.349Z,7.60
2017-12-08T03:23:37.154Z,7.60
2017-12-08T03:26:10.994Z,7.60
2017-12-08T03:28:44.674Z,7.60
2017-12-08T03:31:18.420Z,7.50
2017-12-08T03:33:52.166Z,7.50
2017-12-08T03:36:26.080Z,7.50
2017-12-08T03:38:59.856Z,7.50
2017-12-08T03:41:33.702Z,7.50
2017-12-08T03:44:14.816Z,7.40
2017-12-08T03:46:48.619Z,7.50
2017-12-08T03:49:22.421Z,7.40
2017-12-08T03:51:56.617Z,7.40
2017-12-08T03:54:30.318Z,7.30
2017-12-08T03:57:04.152Z,7.30
2017-12-08T03:59:37.861Z,7.40
2017-12-08T04:02:12.475Z,7.40
2017-12-08T04:04:46.184Z,7.40
2017-12-08T04:07:20.218Z,7.40
2017-12-08T04:09:54.031Z,7.40
2017-12-08T04:12:27.888Z,7.40
2017-12-08T04:15:02.481Z,7.40
2017-12-08T04:17:37.062Z,7.30
2017-12-08T04:20:10.869Z,7.30
2017-12-08T04:22:44.948Z,7.30
2017-12-08T04:25:18.712Z,7.30
2017-12-08T04:27:52.369Z,7.40
2017-12-08T04:30:26.113Z,7.40
2017-12-08T04:32:59.954Z,7.40
2017-12-08T04:35:33.716Z,7.40
2017-12-08T04:38:07.554Z,7.50
2017-12-08T04:40:41.240Z,7.50
2017-12-08T04:43:15.005Z,7.60
2017-12-08T04:45:48.773Z,7.50
2017-12-08T04:48:22.891Z,7.10
2017-12-08T04:50:56.601Z,6.70
2017-12-08T04:53:30.593Z,6.50
2017-12-08T04:56:05.229Z,6.20
2017-12-08T04:58:39.932Z,6.20
2017-12-08T05:01:14.453Z,6.10
2017-12-08T05:03:48.248Z,6.10
2017-12-08T05:06:22.669Z,6.00
2017-12-08T05:08:56.619Z,6.00
2017-12-08T05:11:30.269Z,6.00
2017-12-08T05:14:04.061Z,6.00
2017-12-08T05:16:38.524Z,6.00
2017-12-08T05:19:12.531Z,5.90
2017-12-08T05:21:48.168Z,5.90
2017-12-08T05:24:22.868Z,5.90
2017-12-08T05:26:57.432Z,5.90
2017-12-08T05:29:31.193Z,5.90
2017-12-08T05:32:04.870Z,5.90
2017-12-08T05:34:38.957Z,5.90
2017-12-08T05:37:12.606Z,5.90
2017-12-08T05:39:46.390Z,5.90
2017-12-08T05:42:20.027Z,5.90
2017-12-08T05:44:53.920Z,5.90
2017-12-08T05:47:27.693Z,5.90
2017-12-08T05:50:01.491Z,5.90
2017-12-08T05:52:39.972Z,5.90
2017-12-08T05:55:14.455Z,5.90
2017-12-08T05:57:48.068Z,5.90
2017-12-08T06:00:21.911Z,5.90
2017-12-08T06:02:56.508Z,5.80
2017-12-08T06:05:31.286Z,5.80
2017-12-08T06:08:07.097Z,5.80
2017-12-08T06:10:40.753Z,5.90
2017-12-08T06:13:15.471Z,5.90
2017-12-08T06:15:52.892Z,5.90
2017-12-08T06:18:27.688Z,5.90
2017-12-08T06:21:01.841Z,5.90
2017-12-08T06:23:39.090Z,5.90
2017-12-08T06:26:13.009Z,5.90
2017-12-08T06:28:50.595Z,5.90
2017-12-08T06:31:24.381Z,5.80
2017-12-08T06:33:58.168Z,5.90
2017-12-08T06:36:31.888Z,5.90
2017-12-08T06:39:05.641Z,5.90
2017-12-08T06:41:39.436Z,5.80
2017-12-08T06:44:20.901Z,5.80
2017-12-08T06:46:54.765Z,5.80
2017-12-08T06:49:30.468Z,5.90
2017-12-08T06:52:05.113Z,5.90
2017-12-08T06:54:43.720Z,5.90
2017-12-08T06:57:18.321Z,5.90
2017-12-08T06:59:59.436Z,5.90
2017-12-08T07:02:33.203Z,5.80
2017-12-08T07:05:06.984Z,5.90
2017-12-08T07:07:40.725Z,5.90
2017-12-08T07:10:14.646Z,5.90
2017-12-08T07:12:50.377Z,5.80
2017-12-08T07:15:24.865Z,5.80
2017-12-08T07:18:02.007Z,5.80
2017-12-08T07:20:35.703Z,5.80
2017-12-08T07:23:09.505Z,5.90
2017-12-08T07:25:43.114Z,5.90
2017-12-08T07:28:16.776Z,5.80
2017-12-08T07:30:50.786Z,5.80
2017-12-08T07:33:24.673Z,5.80
2017-12-08T07:35:58.499Z,5.80
2017-12-08T07:38:33.070Z,5.90
2017-12-08T07:41:06.926Z,5.80
2017-12-08T07:43:42.642Z,5.80
2017-12-08T07:46:16.395Z,5.90
2017-12-08T07:48:51.144Z,5.90
2017-12-08T07:51:24.971Z,5.90
2017-12-08T07:53:58.895Z,5.90
2017-12-08T07:56:32.763Z,5.90
2017-12-08T07:59:06.531Z,5.90
2017-12-08T08:01:40.319Z,6.00
2017-12-08T08:04:14.228Z,6.00
2017-12-08T08:06:47.947Z,6.00
2017-12-08T08:09:21.718Z,6.00
2017-12-08T08:11:55.582Z,6.00
2017-12-08T08:14:29.328Z,5.90
2017-12-08T08:17:03.078Z,5.90
2017-12-08T08:19:38.784Z,5.90
2017-12-08T08:22:12.591Z,5.90
2017-12-08T08:24:46.417Z,5.90
2017-12-08T08:27:21.034Z,6.10
2017-12-08T08:29:54.749Z,6.10
2017-12-08T08:32:29.299Z,6.20
2017-12-08T08:35:02.983Z,6.20
2017-12-08T08:37:37.482Z,6.30
2017-12-08T08:40:11.158Z,6.20
2017-12-08T08:42:44.935Z,6.20
2017-12-08T08:45:18.876Z,6.10
2017-12-08T08:47:53.436Z,6.10
2017-12-08T08:50:27.413Z,6.10
2017-12-08T08:53:01.400Z,6.10
2017-12-08T08:55:35.948Z,6.20
2017-12-08T08:58:09.684Z,6.10
2017-12-08T09:00:43.409Z,6.10
2017-12-08T09:03:18.179Z,6.00
2017-12-08T09:05:52.011Z,5.80
2017-12-08T09:08:26.730Z,5.70
2017-12-08T09:11:00.815Z,5.70
2017-12-08T09:13:34.515Z,5.60
2017-12-08T09:16:08.572Z,5.50
2017-12-08T09:18:42.417Z,5.50
2017-12-08T09:21:16.381Z,5.50
2017-12-08T09:23:50.084Z,5.60
2017-12-08T09:26:23.829Z,5.60
2017-12-08T09:28:57.625Z,5.70
2017-12-08T09:31:31.516Z,5.70
2017-12-08T09:34:06.205Z,5.70
2017-12-08T09:36:39.996Z,5.70
2017-12-08T09:39:15.977Z,5.70
2017-12-08T09:41:49.579Z,5.80
2017-12-08T09:44:23.352Z,5.90
2017-12-08T09:46:57.273Z,5.80
2017-12-08T09:49:31.063Z,5.80
2017-12-08T09:52:05.074Z,5.90
2017-12-08T09:54:38.873Z,5.90
2017-12-08T09:57:12.682Z,6.00
2017-12-08T09:59:46.427Z,6.00
2017-12-08T10:02:20.291Z,6.00
2017-12-08T10:04:54.028Z,6.00
2017-12-08T10:07:28.576Z,6.20
2017-12-08T10:10:02.366Z,6.10
2017-12-08T10:12:36.091Z,6.20
2017-12-08T10:15:09.869Z,6.10
2017-12-08T10:17:43.612Z,6.00
2017-12-08T10:20:18.140Z,6.30
2017-12-08T10:22:52.602Z,6.50
2017-12-08T10:25:34.302Z,6.60
2017-12-08T10:28:08.006Z,6.60
2017-12-08T10:30:41.768Z,6.60
2017-12-08T10:33:15.548Z,6.50
2017-12-08T10:35:49.350Z,6.40
2017-12-08T10:38:23.853Z,6.70
2017-12-08T10:40:57.829Z,6.70
2017-12-08T10:43:31.493Z,7.00
2017-12-08T10:46:05.272Z,7.50
2017-12-08T10:48:40.979Z,8.10
2017-12-08T10:51:14.752Z,8.10
2017-12-08T10:53:48.430Z,8.50
2017-12-08T10:56:23.019Z,9.10
2017-12-08T10:58:58.619Z,9.10
2017-12-08T11:01:32.396Z,8.70
2017-12-08T11:04:06.146Z,8.70
2017-12-08T11:06:39.953Z,8.40
2017-12-08T11:09:14.467Z,8.30
2017-12-08T11:11:48.317Z,8.30
2017-12-08T11:14:22.931Z,9.10
2017-12-08T11:16:56.653Z,9.10
2017-12-08T11:19:31.236Z,9.30
2017-12-08T11:22:05.103Z,9.20
2017-12-08T11:24:39.638Z,8.70
2017-12-08T11:27:17.261Z,8.70
2017-12-08T11:29:51.760Z,8.30
2017-12-08T11:32:25.665Z,8.30
2017-12-08T11:34:59.416Z,8.40
2017-12-08T11:37:33.183Z,8.50
2017-12-08T11:40:07.002Z,8.50
2017-12-08T11:42:40.913Z,8.30
2017-12-08T11:45:23.389Z,8.20
2017-12-08T11:47:57.116Z,8.20
2017-12-08T11:50:31.665Z,8.20
2017-12-08T11:53:06.145Z,8.00
2017-12-08T11:55:40.066Z,8.00
2017-12-08T11:58:13.802Z,8.00
2017-12-08T12:00:49.864Z,7.60
2017-12-08T12:03:23.820Z,7.50
2017-12-08T12:05:57.599Z,7.30
2017-12-08T12:08:31.672Z,7.30
2017-12-08T12:11:05.537Z,7.40
2017-12-08T12:13:39.334Z,7.40
2017-12-08T12:16:13.090Z,7.20
2017-12-08T12:18:47.820Z,7.00
2017-12-08T12:21:21.592Z,6.60
2017-12-08T12:23:55.663Z,6.30
2017-12-08T12:26:31.450Z,5.90
2017-12-08T12:29:05.252Z,5.50
2017-12-08T12:31:38.997Z,5.50
2017-12-08T12:34:16.504Z,5.20
2017-12-08T12:36:51.551Z,5.30
2017-12-08T12:39:29.641Z,5.10
2017-12-08T12:42:04.460Z,4.90
2017-12-08T12:44:38.189Z,4.50
2017-12-08T12:47:11.942Z,3.90
2017-12-08T12:49:46.520Z,3.70
2017-12-08T12:52:20.505Z,3.70
2017-12-08T12:54:54.244Z,3.50
2017-12-08T12:57:28.721Z,3.00
2017-12-08T13:00:03.228Z,2.80
2017-12-08T13:02:37.937Z,2.80
2017-12-08T13:05:11.730Z,2.70
2017-12-08T13:07:45.580Z,2.80
2017-12-08T13:10:19.418Z,2.90
2017-12-08T13:12:53.222Z,3.10
2017-12-08T13:15:26.929Z,3.20
2017-12-08T13:18:01.565Z,3.50
2017-12-08T13:20:35.350Z,3.50
2017-12-08T13:23:09.107Z,3.60
2017-12-08T13:25:44.008Z,3.70
2017-12-08T13:28:17.771Z,3.80
2017-12-08T13:30:51.611Z,3.90
2017-12-08T13:33:25.402Z,3.80
2017-12-08T13:35:59.209Z,3.80
2017-12-08T13:38:33.822Z,3.80
2017-12-08T13:41:07.529Z,3.80
2017-12-08T13:43:41.324Z,3.90
2017-12-08T13:46:15.949Z,3.90
2017-12-08T13:48:49.794Z,3.90
2017-12-08T13:51:23.606Z,3.90
2017-12-08T13:54:09.314Z,3.90
2017-12-08T13:56:54.956Z,3.90
2017-12-08T13:59:29.706Z,4.30
2017-12-08T14:02:03.714Z,4.30
2017-12-08T14:04:38.367Z,4.40
2017-12-08T14:07:12.920Z,4.10
2017-12-08T14:09:46.658Z,4.00
2017-12-08T14:12:20.492Z,3.90
2017-12-08T14:14:54.204Z,3.90
2017-12-08T14:17:28.080Z,3.80
2017-12-08T14:20:01.907Z,3.90
2017-12-08T14:22:35.669Z,4.00
2017-12-08T14:25:10.532Z,4.00
2017-12-08T14:27:44.178Z,4.20
2017-12-08T14:30:18.016Z,4.00
2017-12-08T14:32:52.495Z,3.80
2017-12-08T14:35:27.186Z,3.70
2017-12-08T14:38:00.934Z,3.70
2017-12-08T14:40:35.000Z,3.50
2017-12-08T14:43:08.896Z,3.40
2017-12-08T14:45:42.733Z,3.20
2017-12-08T14:48:16.561Z,3.20
2017-12-08T14:50:50.366Z,3.20
2017-12-08T14:53:24.122Z,3.30
2017-12-08T14:55:57.867Z,3.20
2017-12-08T14:58:31.731Z,3.20
2017-12-08T15:01:05.438Z,3.20
2017-12-08T15:03:39.453Z,3.20
2017-12-08T15:06:13.237Z,3.20
2017-12-08T15:08:47.758Z,3.10
2017-12-08T15:11:21.507Z,3.10
2017-12-08T15:13:55.376Z,3.10
2017-12-08T15:16:29.048Z,3.10
2017-12-08T15:19:02.714Z,3.10
2017-12-08T15:21:37.305Z,3.10
2017-12-08T15:24:10.984Z,3.10
2017-12-08T15:26:44.714Z,3.10
2017-12-08T15:29:18.528Z,3.10
2017-12-08T15:31:52.414Z,3.00
2017-12-08T15:34:26.908Z,3.00
2017-12-08T15:37:00.690Z,3.00
2017-12-08T15:39:34.552Z,3.10
2017-12-08T15:42:08.340Z,3.00
2017-12-08T15:44:42.160Z,3.00
2017-12-08T15:47:17.512Z,2.90
2017-12-08T15:49:51.526Z,2.90
2017-12-08T15:52:25.286Z,2.90
2017-12-08T15:54:59.026Z,3.00
2017-12-08T15:57:32.685Z,2.90
2017-12-08T16:00:06.337Z,2.90
2017-12-08T16:02:40.073Z,2.90
2017-12-08T16:05:13.784Z,2.90
2017-12-08T16:07:48.584Z,2.90
2017-12-08T16:10:23.624Z,2.90
2017-12-08T16:12:58.134Z,2.90
2017-12-08T16:15:33.854Z,2.90
2017-12-08T16:18:07.713Z,2.90
2017-12-08T16:20:42.210Z,2.90
2017-12-08T16:23:15.948Z,2.80
2017-12-08T16:25:50.433Z,2.80
2017-12-08T16:28:24.188Z,2.80
2017-12-08T16:30:58.656Z,2.70
2017-12-08T16:33:32.437Z,2.70
2017-12-08T16:36:06.216Z,2.70
2017-12-08T16:38:39.870Z,2.70
2017-12-08T16:41:13.687Z,2.70
2017-12-08T16:43:47.756Z,2.60
2017-12-08T16:46:21.510Z,2.60
2017-12-08T16:48:55.334Z,2.60
2017-12-08T16:51:29.115Z,2.60
2017-12-08T16:54:02.967Z,2.60
2017-12-08T16:56:36.742Z,2.60
2017-12-08T16:59:10.456Z,2.60
2017-12-08T17:01:44.164Z,2.60
2017-12-08T17:04:18.712Z,2.70
2017-12-08T17:06:52.453Z,2.70
2017-12-08T17:09:26.217Z,2.70
2017-12-08T17:12:00.798Z,2.90
2017-12-08T17:14:35.372Z,2.90
2017-12-08T17:17:09.112Z,2.90
2017-12-08T17:19:43.151Z,2.90
2017-12-08T17:22:17.660Z,2.80
2017-12-08T17:24:51.404Z,2.80
2017-12-08T17:27:25.306Z,2.80
2017-12-08T17:29:59.019Z,2.80
2017-12-08T17:32:32.797Z,2.80
2017-12-08T17:35:06.790Z,2.90
2017-12-08T17:37:40.702Z,2.90
2017-12-08T17:40:14.618Z,2.80
2017-12-08T17:42:49.159Z,2.90
2017-12-08T17:45:23.636Z,2.90
2017-12-08T17:47:57.449Z,2.90
2017-12-08T17:50:31.984Z,3.00
2017-12-08T17:53:05.797Z,3.00
2017-12-08T17:55:39.565Z,3.10
2017-12-08T17:58:13.252Z,3.10
2017-12-08T18:00:47.029Z,3.00
2017-12-08T18:03:22.964Z,3.00
2017-12-08T18:05:56.797Z,3.10
2017-12-08T18:08:30.563Z,3.00
2017-12-08T18:11:04.181Z,3.10
2017-12-08T18:13:38.165Z,2.90
2017-12-08T18:16:12.723Z,2.60
2017-12-08T18:18:48.728Z,2.60
2017-12-08T18:21:22.363Z,2.50
2017-12-08T18:23:55.959Z,2.40
2017-12-08T18:26:30.494Z,2.50
2017-12-08T18:29:04.365Z,2.50
2017-12-08T18:31:38.241Z,2.50
2017-12-08T18:34:12.037Z,2.50
2017-12-08T18:36:45.826Z,2.50
2017-12-08T18:39:19.596Z,2.50
2017-12-08T18:41:53.435Z,2.50
2017-12-08T18:44:27.144Z,2.40
2017-12-08T18:47:00.906Z,2.50
2017-12-08T18:49:35.464Z,2.50
2017-12-08T18:52:09.252Z,2.50
2017-12-08T18:54:43.795Z,2.60
2017-12-08T18:57:18.576Z,2.70
2017-12-08T18:59:53.875Z,2.70
2017-12-08T19:02:27.699Z,2.70
2017-12-08T19:05:01.576Z,2.70
2017-12-08T19:07:36.204Z,2.70
2017-12-08T19:10:10.360Z,2.70
2017-12-08T19:12:45.292Z,2.70
2017-12-08T19:15:20.013Z,2.70
2017-12-08T19:17:53.789Z,2.70
2017-12-08T19:20:27.608Z,2.70
2017-12-08T19:23:01.379Z,2.70
2017-12-08T19:25:35.299Z,2.60
2017-12-08T19:28:09.181Z,2.60
2017-12-08T19:30:42.992Z,2.60
2017-12-08T19:33:16.742Z,2.60
2017-12-08T19:35:51.454Z,2.60
2017-12-08T19:38:29.720Z,2.60
2017-12-08T19:41:03.637Z,2.60
2017-12-08T19:43:37.519Z,2.60
2017-12-08T19:46:11.250Z,2.60
2017-12-08T19:48:49.666Z,2.60
2017-12-08T19:51:24.298Z,2.40
2017-12-08T19:53:58.055Z,2.40
2017-12-08T19:56:35.397Z,2.40
2017-12-08T19:59:09.253Z,2.30
2017-12-08T20:01:46.556Z,2.40
2017-12-08T20:04:22.246Z,2.40
2017-12-08T20:06:56.425Z,2.40
2017-12-08T20:09:30.181Z,2.50
2017-12-08T20:12:03.999Z,2.50
2017-12-08T20:14:38.865Z,2.50
2017-12-08T20:17:12.556Z,2.50
2017-12-08T20:19:46.324Z,2.50
2017-12-08T20:22:20.131Z,2.50
2017-12-08T20:24:54.755Z,2.50
2017-12-08T20:27:28.460Z,2.50
2017-12-08T20:30:02.325Z,2.60
2017-12-08T20:32:37.991Z,2.70
2017-12-08T20:35:11.824Z,2.60
2017-12-08T20:37:46.314Z,2.50
2017-12-08T20:40:20.113Z,2.50
2017-12-08T20:42:53.845Z,2.50
2017-12-08T20:45:27.614Z,2.40
2017-12-08T20:48:08.927Z,2.50
2017-12-08T20:50:42.703Z,2.40
2017-12-08T20:53:16.424Z,2.40
2017-12-08T20:55:50.229Z,2.40
2017-12-08T20:58:23.990Z,2.50
2017-12-08T21:00:57.715Z,2.40
2017-12-08T21:03:32.182Z,2.50
2017-12-08T21:06:06.584Z,2.50
2017-12-08T21:08:40.520Z,2.50
2017-12-08T21:11:15.016Z,2.50
2017-12-08T21:13:48.818Z,2.50
2017-12-08T21:16:23.264Z,2.50
2017-12-08T21:18:57.053Z,2.50
2017-12-08T21:21:30.701Z,2.40
2017-12-08T21:24:04.480Z,2.50
2017-12-08T21:26:38.292Z,2.50
2017-12-08T21:29:12.767Z,2.50
2017-12-08T21:31:47.337Z,2.50
2017-12-08T21:34:21.573Z,2.50
2017-12-08T21:36:56.080Z,2.50
2017-12-08T21:39:29.890Z,2.40
2017-12-08T21:42:04.427Z,2.50
2017-12-08T21:44:38.246Z,2.40
2017-12-08T21:47:12.084Z,2.40
2017-12-08T21:49:45.817Z,2.40
2017-12-08T21:52:20.225Z,2.30
2017-12-08T21:54:53.928Z,2.30
2017-12-08T21:57:28.648Z,2.30
2017-12-08T22:00:02.461Z,2.20
2017-12-08T22:02:36.180Z,2.20
2017-12-08T22:05:10.203Z,2.30
2017-12-08T22:07:45.046Z,2.30
2017-12-08T22:10:19.646Z,2.30
2017-12-08T22:12:53.324Z,2.30
2017-12-08T22:15:26.925Z,2.30
2017-12-08T22:18:01.469Z,2.30
2017-12-08T22:20:35.253Z,2.30
2017-12-08T22:23:09.026Z,2.30
2017-12-08T22:25:43.515Z,2.30
2017-12-08T22:28:17.215Z,2.30
2017-12-08T22:30:50.953Z,2.30
2017-12-08T22:33:24.717Z,2.30
2017-12-08T22:35:58.564Z,2.30
2017-12-08T22:38:34.232Z,2.40
2017-12-08T22:41:09.227Z,2.40
2017-12-08T22:43:42.928Z,2.40
2017-12-08T22:46:17.867Z,2.00
2017-12-08T22:48:51.872Z,2.00
2017-12-08T22:51:25.595Z,1.60
2017-12-08T22:53:59.147Z,1.60
2017-12-08T22:56:33.014Z,1.50
2017-12-08T22:59:06.893Z,1.60
2017-12-08T23:01:41.009Z,1.60
2017-12-08T23:04:14.756Z,1.50
2017-12-08T23:06:48.599Z,1.50
2017-12-08T23:09:22.397Z,1.60
2017-12-08T23:11:57.248Z,1.60
2017-12-08T23:14:31.129Z,1.60
2017-12-08T23:17:04.968Z,1.60
2017-12-08T23:19:38.808Z,1.60
2017-12-08T23:22:13.367Z,1.50
2017-12-08T23:24:47.864Z,1.60
2017-12-08T23:27:21.685Z,1.60
2017-12-08T23:29:55.398Z,1.60
2017-12-08T23:32:29.177Z,1.60
2017-12-08T23:35:03.004Z,1.60
2017-12-08T23:37:37.538Z,1.60
2017-12-08T23:40:11.214Z,1.50
2017-12-08T23:42:45.178Z,1.60
2017-12-08T23:45:19.765Z,1.40
2017-12-08T23:47:53.802Z,1.30
2017-12-08T23:50:27.496Z,1.30
2017-12-08T23:53:01.345Z,1.20
2017-12-08T23:55:35.921Z,1.20
2017-12-08T23:58:09.616Z,1.20
